FlightSpace

METAR
EPPO 200030Z 29018KT 9999 OVC013 03/02 Q1005
TAF
TAF EPPO 192330Z 2000/2024 27015KT 9999 BKN020 TEMPO 2000/2007 29015G25KT 3000 SHRA BKN007 BKN020CB PROB30 2000/2005 29020G35KT 2000 SHSN BKN014CB TEMPO 2007/2017 28015G25KT -SHRA BKN015CB
TAF EPPO 191730Z 1918/2018 27015KT 9999 BKN028 TEMPO 1918/2005 29020G35KT 4000 SHRA BKN014CB PROB40 TEMPO 1921/2003 2000 SHRASN BKN007 BKN010CB TEMPO 2007/2012 28015G26KT -SHRA BKN014CB TEMPO 2012/2018 SHRA BKN014CB
TAF EPPO 191130Z 1912/2012 24015KT 9999 BKN017 TEMPO 1912/1918 26015G30KT 4500 SHRA BKN008 BKN012CB TEMPO 1920/2004 27020G36KT 4000 SHRA BKN012CB PROB40 TEMPO 1922/2002 1400 SHRASN BKN005 BKN012CB TEMPO 2004/2012 BKN012
TAF EPPO 190530Z 1906/2006 25012KT 9999 OVC016 TEMPO 1906/2004 25016G26KT -SHRA BKN010CB

Poznań-Ławica Airport ( EPPO , POZ )


Location
  • Country: PL
  • Region: PL-WP
  • Municipality: Poznań
  • ARP: 52.421 16.8263, elev. 308 ft
  • ICAO Address: EPPO
  • IATA Code: POZ
  • GPS Code: EPPO
  • Ident: EPPO
  • Time Zone: Europe/Warsaw
  • Actual Local Time: 02:44:15
Radio communication
TWR 119.975 MHz POZNAN TWR
ATIS 124.700 MHz POZNAN ATIS
APP 135.525 MHz POZNAN APP
Runways
Direction Width Length Surface
28 50 2504 ASP
10 50 2504 ASP
Comments



Advertisement